createdAt,value
2019-04-07T00:00:49.281Z,10.1
2019-04-07T00:01:49.018Z,10.1
2019-04-07T00:02:50.019Z,10.1
2019-04-07T00:03:49.464Z,10.1
2019-04-07T00:04:49.465Z,10.1
2019-04-07T00:05:49.458Z,10.1
2019-04-07T00:06:49.379Z,10.1
2019-04-07T00:07:49.518Z,10.1
2019-04-07T00:08:49.745Z,10.1
2019-04-07T00:09:49.467Z,10.1
2019-04-07T00:10:49.551Z,10.2
2019-04-07T00:11:49.740Z,10.3
2019-04-07T00:12:49.846Z,10.3
2019-04-07T00:13:49.950Z,10.3
2019-04-07T00:14:50.328Z,10.4
2019-04-07T00:15:49.959Z,10.3
2019-04-07T00:16:49.853Z,10.2
2019-04-07T00:17:50.473Z,10.2
2019-04-07T00:18:50.000Z,10.2
2019-04-07T00:19:50.390Z,10.2
2019-04-07T00:20:50.183Z,10.1
2019-04-07T00:21:50.169Z,10.2
2019-04-07T00:22:50.214Z,10.3
2019-04-07T00:23:50.734Z,10.2
2019-04-07T00:24:50.331Z,10.1
2019-04-07T00:25:50.923Z,10.1
2019-04-07T00:26:50.449Z,10.2
2019-04-07T00:27:50.545Z,10.1
2019-04-07T00:28:50.565Z,10.2
2019-04-07T00:29:50.855Z,10.2
2019-04-07T00:30:51.275Z,10.1
2019-04-07T00:31:51.083Z,10.1
2019-04-07T00:32:50.784Z,10.1
2019-04-07T00:33:50.850Z,10.1
2019-04-07T00:34:50.898Z,10.1
2019-04-07T00:35:50.985Z,10.1
2019-04-07T00:36:51.112Z,10.1
2019-04-07T00:37:51.619Z,10
2019-04-07T00:38:51.524Z,9.9
2019-04-07T00:39:51.553Z,10
2019-04-07T00:40:51.241Z,10.1
2019-04-07T00:41:51.787Z,10.2
2019-04-07T00:42:51.351Z,10.3
2019-04-07T00:43:51.786Z,10.2
2019-04-07T00:44:51.456Z,10.2
2019-04-07T00:45:51.519Z,10.2
2019-04-07T00:46:51.856Z,10.2
2019-04-07T00:47:51.586Z,10.1
2019-04-07T00:48:51.666Z,10.2
2019-04-07T00:49:52.182Z,10.2
2019-04-07T00:50:51.781Z,10.2
2019-04-07T00:51:51.845Z,10.3
2019-04-07T00:52:52.515Z,10.3
2019-04-07T00:53:51.993Z,10.3
2019-04-07T00:54:52.261Z,10.4
2019-04-07T00:55:52.094Z,10.4
2019-04-07T00:56:52.165Z,10.3
2019-04-07T00:57:52.904Z,10.3
2019-04-07T00:58:52.431Z,10.3
2019-04-07T00:59:52.320Z,10.3
2019-04-07T01:00:53.000Z,10.3
2019-04-07T01:01:52.631Z,10.4
2019-04-07T01:02:52.960Z,10.3
2019-04-07T01:03:52.551Z,10.3
2019-04-07T01:04:52.589Z,10.3
2019-04-07T01:05:53.197Z,10.3
2019-04-07T01:06:52.791Z,10.3
2019-04-07T01:07:52.814Z,10.3
2019-04-07T01:08:52.886Z,10.3
2019-04-07T01:09:53.156Z,10.3
2019-04-07T01:10:53.321Z,10.3
2019-04-07T01:11:53.004Z,10.2
2019-04-07T01:12:53.333Z,10.3
2019-04-07T01:13:53.148Z,10.3
2019-04-07T01:14:53.375Z,10.4
2019-04-07T01:15:53.772Z,10.4
2019-04-07T01:16:53.361Z,10.4
2019-04-07T01:17:53.377Z,10.3
2019-04-07T01:18:53.516Z,10.3
2019-04-07T01:19:53.611Z,10.4
2019-04-07T01:20:53.946Z,10.4
2019-04-07T01:21:53.669Z,10.3
2019-04-07T01:22:53.617Z,10.4
2019-04-07T01:23:54.395Z,10.4
2019-04-07T01:24:53.735Z,10.4
2019-04-07T01:25:54.250Z,10.4
2019-04-07T01:26:53.844Z,10.5
2019-04-07T01:27:54.434Z,10.5
2019-04-07T01:28:55.078Z,10.5
2019-04-07T01:29:54.174Z,10.5
2019-04-07T01:30:54.260Z,10.5
2019-04-07T01:31:54.071Z,10.5
2019-04-07T01:32:54.146Z,10.5
2019-04-07T01:33:54.315Z,10.4
2019-04-07T01:34:54.706Z,10.4
2019-04-07T01:35:54.874Z,10.4
2019-04-07T01:36:54.475Z,10.5
2019-04-07T01:37:54.972Z,10.5
2019-04-07T01:38:54.536Z,10.5
2019-04-07T01:39:54.878Z,10.5
2019-04-07T01:40:54.610Z,10.5
2019-04-07T01:41:54.637Z,10.5
2019-04-07T01:42:55.240Z,10.5
2019-04-07T01:43:54.786Z,10.5
2019-04-07T01:44:55.082Z,10.5
2019-04-07T01:45:55.094Z,10.4
2019-04-07T01:46:54.955Z,10.4
2019-04-07T01:47:55.011Z,10.4
2019-04-07T01:48:55.244Z,10.5
2019-04-07T01:49:55.604Z,10.4
2019-04-07T01:50:55.155Z,10.4
2019-04-07T01:51:55.509Z,10.4
2019-04-07T01:52:55.273Z,10.4
2019-04-07T01:53:55.333Z,10.4
2019-04-07T01:54:55.928Z,10.3
2019-04-07T01:55:55.512Z,10.3
2019-04-07T01:56:55.505Z,10.3
2019-04-07T01:57:55.584Z,10.3
2019-04-07T01:58:56.145Z,10.3
2019-04-07T01:59:55.729Z,10.3
2019-04-07T02:00:55.934Z,10.3
2019-04-07T02:01:55.851Z,10.4
2019-04-07T02:02:55.889Z,10.4
2019-04-07T02:03:56.228Z,10.4
2019-04-07T02:04:56.013Z,10.4
2019-04-07T02:05:58.966Z,10.4
2019-04-07T02:06:56.404Z,10.4
2019-04-07T02:08:06.786Z,10.4
2019-04-07T02:08:56.269Z,10.4
2019-04-07T02:09:56.490Z,10.3
2019-04-07T02:11:08.809Z,10.4
2019-04-07T02:11:56.383Z,10.4
2019-04-07T02:12:56.630Z,10.4
2019-04-07T02:13:56.512Z,10.4
2019-04-07T02:14:56.538Z,10.4
2019-04-07T02:15:56.899Z,10.3
2019-04-07T02:16:56.647Z,10.3
2019-04-07T02:17:57.031Z,10.3
2019-04-07T02:18:56.965Z,10.3
2019-04-07T02:19:57.080Z,10.4
2019-04-07T02:20:57.579Z,10.4
2019-04-07T02:21:56.967Z,10.4
2019-04-07T02:22:57.362Z,10.3
2019-04-07T02:23:57.559Z,10.2
2019-04-07T02:24:57.556Z,10.1
2019-04-07T02:25:57.250Z,9.9
2019-04-07T02:26:57.629Z,9.8
2019-04-07T02:27:57.355Z,9.8
2019-04-07T02:28:57.425Z,9.8
2019-04-07T02:29:57.889Z,9.8
2019-04-07T02:30:58.755Z,9.9
2019-04-07T02:31:58.464Z,10.1
2019-04-07T02:32:58.248Z,10.2
2019-04-07T02:33:57.769Z,10.3
2019-04-07T02:34:57.775Z,10.3
2019-04-07T02:36:13.238Z,10.4
2019-04-07T02:36:58.191Z,10.4
2019-04-07T02:37:58.081Z,10.4
2019-04-07T02:38:58.283Z,10.4
2019-04-07T02:39:58.786Z,10.4
2019-04-07T02:40:58.198Z,10.4
2019-04-07T02:41:58.158Z,10.4
2019-04-07T02:42:58.924Z,10.4
2019-04-07T02:43:58.256Z,10.4
2019-04-07T02:44:59.034Z,10.5
2019-04-07T02:45:58.420Z,10.5
2019-04-07T02:46:58.800Z,10.4
2019-04-07T02:47:58.528Z,10.4
2019-04-07T02:48:58.633Z,10.4
2019-04-07T02:49:59.553Z,10.4
2019-04-07T02:50:59.614Z,10.4
2019-04-07T02:51:58.801Z,10.4
2019-04-07T02:52:59.376Z,10.4
2019-04-07T02:53:59.355Z,10.4
2019-04-07T02:54:59.225Z,10.4
2019-04-07T02:55:59.063Z,10.4
2019-04-07T02:56:59.112Z,10.5
2019-04-07T02:57:59.144Z,10.4
2019-04-07T02:58:59.416Z,10.5
2019-04-07T02:59:59.628Z,10.5
2019-04-07T03:00:59.375Z,10.5
2019-04-07T03:01:59.653Z,10.4
2019-04-07T03:02:59.466Z,10.4
2019-04-07T03:03:59.907Z,10.4
2019-04-07T03:04:59.932Z,10.4
2019-04-07T03:05:59.716Z,10.4
2019-04-07T03:07:00.607Z,10.3
2019-04-07T03:07:59.716Z,10.4
2019-04-07T03:08:59.786Z,10.4
2019-04-07T03:10:00.263Z,10.5
2019-04-07T03:10:59.970Z,10.4
2019-04-07T03:11:59.946Z,10.4
2019-04-07T03:13:00.955Z,10.4
2019-04-07T03:14:00.193Z,10.3
2019-04-07T03:15:00.567Z,10.4
2019-04-07T03:16:00.774Z,10.4
2019-04-07T03:17:00.625Z,10.4
2019-04-07T03:18:00.746Z,10.4
2019-04-07T03:19:00.495Z,10.3
2019-04-07T03:20:00.814Z,10.2
2019-04-07T03:21:01.154Z,10.2
2019-04-07T03:22:01.089Z,10.2
2019-04-07T03:23:00.629Z,10.2
2019-04-07T03:24:00.742Z,10.2
2019-04-07T03:25:00.702Z,10.1
2019-04-07T03:26:02.200Z,10.1
2019-04-07T03:27:00.976Z,10.1
2019-04-07T03:28:01.102Z,10.1
2019-04-07T03:29:02.025Z,10
2019-04-07T03:30:01.133Z,10
2019-04-07T03:31:02.079Z,10
2019-04-07T03:32:02.696Z,10
2019-04-07T03:33:03.491Z,10.1
2019-04-07T03:34:04.049Z,10
2019-04-07T03:35:03.045Z,10.1
2019-04-07T03:36:03.306Z,10
2019-04-07T03:37:18.128Z,10
2019-04-07T03:38:02.120Z,10
2019-04-07T03:39:02.334Z,10
2019-04-07T03:40:02.835Z,10
2019-04-07T03:41:01.772Z,9.9
2019-04-07T03:42:02.913Z,9.9
2019-04-07T03:43:02.832Z,9.9
2019-04-07T03:44:01.897Z,9.8
2019-04-07T03:45:02.901Z,9.9
2019-04-07T03:46:03.672Z,9.9
2019-04-07T03:47:03.494Z,9.9
2019-04-07T03:48:04.213Z,9.8
2019-04-07T03:49:03.982Z,9.7
2019-04-07T03:50:03.968Z,9.6
2019-04-07T03:51:03.973Z,9.6
2019-04-07T03:52:04.683Z,9.7
2019-04-07T03:53:04.786Z,9.7
2019-04-07T03:54:04.440Z,9.6
2019-04-07T03:55:02.541Z,9.6
2019-04-07T03:56:04.817Z,9.6
2019-04-07T03:57:04.641Z,9.5
2019-04-07T03:58:05.190Z,9.5
2019-04-07T03:59:03.392Z,9.6
2019-04-07T04:00:05.871Z,9.6
2019-04-07T04:01:05.219Z,9.6
2019-04-07T04:02:04.678Z,9.7
2019-04-07T04:03:06.758Z,9.7
2019-04-07T04:04:03.116Z,9.7
2019-04-07T04:05:03.007Z,9.7
2019-04-07T04:06:06.799Z,9.7
2019-04-07T04:07:17.667Z,9.8
2019-04-07T04:08:07.380Z,9.8
2019-04-07T04:09:03.143Z,9.8
2019-04-07T04:10:03.371Z,9.8
2019-04-07T04:11:04.195Z,9.8
2019-04-07T04:12:03.412Z,9.7
2019-04-07T04:13:03.572Z,9.8
2019-04-07T04:14:04.382Z,9.8
2019-04-07T04:15:03.667Z,9.8
2019-04-07T04:16:03.556Z,9.8
2019-04-07T04:17:04.217Z,9.8
2019-04-07T04:18:08.306Z,9.7
2019-04-07T04:19:05.112Z,9.8
2019-04-07T04:20:04.974Z,9.8
2019-04-07T04:21:03.837Z,9.8
2019-04-07T04:22:04.088Z,9.8
2019-04-07T04:23:04.041Z,9.8
2019-04-07T04:24:04.254Z,9.8
2019-04-07T04:25:04.764Z,9.9
2019-04-07T04:26:04.376Z,9.9
2019-04-07T04:27:04.548Z,9.8
2019-04-07T04:28:04.864Z,9.8
2019-04-07T04:29:04.268Z,9.8
2019-04-07T04:30:04.979Z,9.9
2019-04-07T04:31:04.636Z,9.9
2019-04-07T04:32:04.436Z,9.9
2019-04-07T04:33:04.471Z,9.8
2019-04-07T04:34:05.301Z,9.8
2019-04-07T04:35:04.584Z,9.8
2019-04-07T04:36:05.611Z,9.8
2019-04-07T04:37:04.662Z,9.8
2019-04-07T04:38:04.724Z,9.8
2019-04-07T04:39:04.914Z,9.8
2019-04-07T04:40:05.085Z,9.7
2019-04-07T04:41:04.931Z,9.6
2019-04-07T04:42:05.456Z,9.6
2019-04-07T04:43:04.999Z,9.6
2019-04-07T04:44:05.059Z,9.6
2019-04-07T04:45:06.060Z,9.6
2019-04-07T04:46:08.161Z,9.7
2019-04-07T04:47:05.201Z,9.7
2019-04-07T04:48:05.308Z,9.7
2019-04-07T04:49:06.408Z,9.7
2019-04-07T04:50:06.245Z,9.6
2019-04-07T04:51:05.455Z,9.6
2019-04-07T04:52:05.462Z,9.6
2019-04-07T04:53:06.140Z,9.6
2019-04-07T04:54:05.565Z,9.6
2019-04-07T04:55:05.648Z,9.7
2019-04-07T04:56:05.718Z,9.6
2019-04-07T04:57:07.948Z,9.7
2019-04-07T04:58:05.835Z,9.8
2019-04-07T04:59:06.020Z,9.8
2019-04-07T05:00:05.969Z,9.8
2019-04-07T05:01:06.288Z,9.8
2019-04-07T05:02:06.016Z,9.7
2019-04-07T05:03:06.057Z,9.6
2019-04-07T05:04:06.307Z,9.6
2019-04-07T05:05:08.791Z,9.5
2019-04-07T05:06:06.698Z,9.5
2019-04-07T05:07:06.382Z,9.5
2019-04-07T05:08:06.854Z,9.5
2019-04-07T05:09:06.848Z,9.5
2019-04-07T05:10:06.799Z,9.5
2019-04-07T05:11:06.845Z,9.5
2019-04-07T05:12:06.872Z,9.4
2019-04-07T05:13:07.442Z,9.4
2019-04-07T05:14:07.130Z,9.5
2019-04-07T05:15:06.841Z,9.5
2019-04-07T05:16:07.095Z,9.4
2019-04-07T05:17:07.345Z,9.4
2019-04-07T05:18:06.955Z,9.4
2019-04-07T05:19:07.007Z,9.4
2019-04-07T05:20:07.084Z,9.4
2019-04-07T05:21:07.120Z,9.4
2019-04-07T05:22:07.189Z,9.5
2019-04-07T05:23:07.765Z,9.5
2019-04-07T05:24:07.296Z,9.5
2019-04-07T05:25:07.341Z,9.6
2019-04-07T05:26:07.756Z,9.6
2019-04-07T05:27:07.456Z,9.6
2019-04-07T05:28:07.530Z,9.6
2019-04-07T05:29:08.111Z,9.6
2019-04-07T05:30:07.774Z,9.6
2019-04-07T05:31:07.690Z,9.7
2019-04-07T05:32:07.979Z,9.7
2019-04-07T05:33:07.771Z,9.6
2019-04-07T05:34:08.021Z,9.6
2019-04-07T05:35:08.694Z,9.7
2019-04-07T05:37:08.708Z,9.8
2019-04-07T05:38:08.389Z,9.8
2019-04-07T05:40:08.245Z,9.8
2019-04-07T05:41:08.240Z,9.8
2019-04-07T05:42:08.285Z,9.8
2019-04-07T05:43:08.367Z,9.9
2019-04-07T05:44:08.860Z,10
2019-04-07T05:45:09.999Z,10
2019-04-07T05:46:09.099Z,10
2019-04-07T05:47:10.810Z,9.9
2019-04-07T05:48:08.628Z,10
2019-04-07T05:49:08.679Z,10
2019-04-07T05:50:08.727Z,10
2019-04-07T05:51:08.834Z,10
2019-04-07T05:52:09.573Z,10
2019-04-07T05:54:09.268Z,10
2019-04-07T05:55:09.003Z,10
2019-04-07T05:56:09.025Z,10.1
2019-04-07T05:57:09.715Z,10
2019-04-07T05:58:09.156Z,10.1
2019-04-07T05:59:10.839Z,10.1
2019-04-07T06:01:09.317Z,10.2
2019-04-07T06:02:09.356Z,10.2
2019-04-07T06:03:09.523Z,10.2
2019-04-07T06:04:13.618Z,10.1
2019-04-07T06:06:09.616Z,10.1
2019-04-07T06:07:10.166Z,10.2
2019-04-07T06:08:21.665Z,10.2
2019-04-07T06:09:09.756Z,10.3
2019-04-07T06:10:09.988Z,10.2
2019-04-07T06:11:10.378Z,10.3
2019-04-07T06:12:10.690Z,10.4
2019-04-07T06:15:10.592Z,10.4
2019-04-07T06:17:10.811Z,10.5
2019-04-07T06:19:10.614Z,10.7
2019-04-07T06:20:14.036Z,10.7
2019-04-07T06:21:10.430Z,10.7
2019-04-07T06:22:11.087Z,10.7
2019-04-07T06:23:10.525Z,10.7
2019-04-07T06:24:11.284Z,10.8
2019-04-07T06:25:11.049Z,10.9
2019-04-07T06:26:11.811Z,10.9
2019-04-07T06:27:10.970Z,10.9
2019-04-07T06:28:10.809Z,10.9
2019-04-07T06:29:11.633Z,11
2019-04-07T06:30:10.958Z,11.1
2019-04-07T06:31:11.720Z,11.2
2019-04-07T06:32:11.509Z,11.2
2019-04-07T06:33:11.211Z,11.3
2019-04-07T06:34:12.111Z,11.3
2019-04-07T06:35:13.278Z,11.3
2019-04-07T06:36:11.558Z,11.3
2019-04-07T06:37:11.290Z,11.4
2019-04-07T06:38:11.360Z,11.5
2019-04-07T06:39:13.477Z,11.5
2019-04-07T06:40:12.240Z,11.4
2019-04-07T06:41:11.563Z,11.5
2019-04-07T06:42:12.015Z,11.6
2019-04-07T06:43:11.692Z,11.7
2019-04-07T06:44:14.413Z,11.7
2019-04-07T06:45:11.937Z,11.8
2019-04-07T06:46:11.895Z,11.8
2019-04-07T06:47:11.958Z,11.8
2019-04-07T06:48:11.993Z,11.7
2019-04-07T06:49:13.739Z,11.8
2019-04-07T06:51:12.204Z,11.8
2019-04-07T06:52:12.268Z,11.9
2019-04-07T06:53:17.414Z,11.9
2019-04-07T06:54:12.388Z,11.9
2019-04-07T06:55:12.511Z,11.9
2019-04-07T06:56:12.562Z,12
2019-04-07T06:57:12.569Z,12.1
2019-04-07T06:58:12.673Z,12
2019-04-07T06:59:15.279Z,12.1
2019-04-07T07:00:12.762Z,12.2
2019-04-07T07:01:13.262Z,12.3
2019-04-07T07:02:13.228Z,12.3
2019-04-07T07:03:12.965Z,12.3
2019-04-07T07:04:13.945Z,12.3
2019-04-07T07:05:13.719Z,12.4
2019-04-07T07:06:15.041Z,12.4
2019-04-07T07:07:13.175Z,12.5
2019-04-07T07:08:13.237Z,12.5
2019-04-07T07:09:14.668Z,12.7
2019-04-07T07:10:14.650Z,12.7
2019-04-07T07:11:23.958Z,12.8
2019-04-07T07:12:19.701Z,12.8
2019-04-07T07:13:26.372Z,12.8
2019-04-07T07:14:14.320Z,12.8
2019-04-07T07:15:14.439Z,12.8
2019-04-07T07:16:15.597Z,12.8
2019-04-07T07:17:16.931Z,12.8
2019-04-07T07:18:14.190Z,12.8
2019-04-07T07:19:14.144Z,12.9
2019-04-07T07:20:13.963Z,12.9
2019-04-07T07:21:14.443Z,13
2019-04-07T07:22:15.965Z,13.2
2019-04-07T07:23:14.940Z,13.3
2019-04-07T07:24:15.576Z,13.3
2019-04-07T07:25:14.687Z,13.3
2019-04-07T07:26:14.269Z,13.3
2019-04-07T07:27:14.289Z,13.5
2019-04-07T07:28:14.387Z,13.5
2019-04-07T07:29:15.558Z,13.4
2019-04-07T07:30:17.369Z,13.5
2019-04-07T07:31:14.534Z,13.6
2019-04-07T07:32:14.804Z,13.6
2019-04-07T07:33:14.820Z,13.7
2019-04-07T07:34:15.529Z,13.8
2019-04-07T07:35:15.493Z,13.8
2019-04-07T07:36:17.257Z,13.9
2019-04-07T07:37:15.795Z,13.9
2019-04-07T07:38:15.552Z,13.8
2019-04-07T07:39:15.197Z,14
2019-04-07T07:40:17.535Z,14
2019-04-07T07:41:19.097Z,14.1
2019-04-07T07:42:15.223Z,14.1
2019-04-07T07:43:15.348Z,14.1
2019-04-07T07:44:15.619Z,14.1
2019-04-07T07:45:15.557Z,14.1
2019-04-07T07:46:18.074Z,14.1
2019-04-07T07:47:15.403Z,14.3
2019-04-07T07:48:16.288Z,14.5
2019-04-07T07:49:15.802Z,14.3
2019-04-07T07:50:15.615Z,14.6
2019-04-07T07:51:16.375Z,14.7
2019-04-07T07:52:18.008Z,14.8
2019-04-07T07:53:15.793Z,14.8
2019-04-07T07:54:16.133Z,15
2019-04-07T07:55:15.949Z,14.9
2019-04-07T07:56:16.010Z,14.9
2019-04-07T07:57:16.087Z,15
2019-04-07T07:58:16.358Z,15.1
2019-04-07T07:59:16.631Z,15.5
2019-04-07T08:00:16.962Z,15.6
2019-04-07T08:01:17.740Z,15.5
2019-04-07T08:02:18.505Z,15.5
2019-04-07T08:03:16.649Z,15.5
2019-04-07T08:04:17.314Z,15.4
2019-04-07T08:05:17.145Z,15.3
2019-04-07T08:06:17.247Z,15.3
2019-04-07T08:07:16.713Z,15.5
2019-04-07T08:08:16.614Z,15.5
2019-04-07T08:09:21.407Z,15.4
2019-04-07T08:10:17.149Z,15.4
2019-04-07T08:11:17.669Z,15.4
2019-04-07T08:12:17.350Z,15.5
2019-04-07T08:13:16.923Z,15.6
2019-04-07T08:14:18.199Z,15.5
2019-04-07T08:15:17.085Z,15.8
2019-04-07T08:16:17.386Z,15.8
2019-04-07T08:17:17.269Z,15.9
2019-04-07T08:18:19.444Z,16
2019-04-07T08:19:17.873Z,15.9
2019-04-07T08:20:17.449Z,15.8
2019-04-07T08:21:19.278Z,15.4
2019-04-07T08:22:27.207Z,15.5
2019-04-07T08:23:17.373Z,15.4
2019-04-07T08:24:19.128Z,15.2
2019-04-07T08:25:20.322Z,15.3
2019-04-07T08:26:21.219Z,15.6
2019-04-07T08:27:17.643Z,15.4
2019-04-07T08:28:19.706Z,15.5
2019-04-07T08:29:17.856Z,15.9
2019-04-07T08:30:18.402Z,16
2019-04-07T08:31:21.145Z,15.6
2019-04-07T08:32:18.665Z,15.3
2019-04-07T08:33:17.963Z,15.5
2019-04-07T08:34:17.938Z,15.7
2019-04-07T08:35:18.662Z,15.8
2019-04-07T08:36:18.281Z,15.7
2019-04-07T08:37:19.003Z,15.6
2019-04-07T08:38:19.819Z,15.9
2019-04-07T08:39:22.613Z,15.8
2019-04-07T08:40:18.787Z,15.8
2019-04-07T08:41:18.973Z,15.8
2019-04-07T08:42:19.485Z,15.8
2019-04-07T08:43:21.125Z,15.7
2019-04-07T08:44:18.641Z,15.9
2019-04-07T08:45:18.920Z,15.8
2019-04-07T08:46:18.891Z,15.8
2019-04-07T08:47:20.969Z,16
2019-04-07T08:48:20.579Z,16
2019-04-07T08:49:19.165Z,16.1
2019-04-07T08:50:20.880Z,16
2019-04-07T08:51:19.028Z,16.1
2019-04-07T08:52:19.606Z,16.2
2019-04-07T08:53:19.204Z,16.3
2019-04-07T08:54:19.885Z,16.3
2019-04-07T08:55:20.371Z,16.3
2019-04-07T08:56:19.361Z,16.4
2019-04-07T08:57:19.670Z,16.4
2019-04-07T08:58:25.524Z,16.5
2019-04-07T08:59:19.569Z,16.6
2019-04-07T09:00:20.176Z,17.1
2019-04-07T09:01:21.061Z,17.2
2019-04-07T09:02:20.032Z,17.1
2019-04-07T09:03:19.718Z,16.8
2019-04-07T09:04:19.736Z,17
2019-04-07T09:05:22.387Z,17.1
2019-04-07T09:06:20.791Z,17
2019-04-07T09:07:22.452Z,16.9
2019-04-07T09:08:20.383Z,16.9
2019-04-07T09:09:31.149Z,16.8
2019-04-07T09:10:20.852Z,16.5
2019-04-07T09:11:22.405Z,16.8
2019-04-07T09:12:20.661Z,16.7
2019-04-07T09:13:20.794Z,16.5
2019-04-07T09:14:20.305Z,16.4
2019-04-07T09:15:20.292Z,16.6
2019-04-07T09:16:20.402Z,16.7
2019-04-07T09:17:30.578Z,16.9
2019-04-07T09:18:20.519Z,16.9
2019-04-07T09:19:20.534Z,16.9
2019-04-07T09:20:21.195Z,16.9
2019-04-07T09:21:21.435Z,17
2019-04-07T09:22:22.715Z,16.9
2019-04-07T09:23:20.796Z,17.2
2019-04-07T09:24:21.339Z,17.3
2019-04-07T09:25:21.448Z,17.3
2019-04-07T09:26:22.565Z,17.2
2019-04-07T09:27:23.441Z,17.1
2019-04-07T09:28:23.693Z,17.2
2019-04-07T09:29:21.132Z,17.3
2019-04-07T09:30:21.188Z,17.4
2019-04-07T09:31:22.017Z,17.3
2019-04-07T09:32:21.323Z,17.8
2019-04-07T09:33:21.581Z,18
2019-04-07T09:34:22.201Z,17.7
2019-04-07T09:35:23.957Z,17.9
2019-04-07T09:36:22.322Z,17.8
2019-04-07T09:37:23.234Z,18
2019-04-07T09:38:24.787Z,18
2019-04-07T09:39:22.251Z,17.9
2019-04-07T09:40:22.529Z,18
2019-04-07T09:41:24.940Z,18
2019-04-07T09:42:24.278Z,18
2019-04-07T09:43:22.474Z,18.2
2019-04-07T09:44:22.378Z,18.3
2019-04-07T09:45:22.819Z,18.3
2019-04-07T09:46:22.876Z,18.2
2019-04-07T09:47:22.638Z,18.3
2019-04-07T09:48:23.158Z,18.1
2019-04-07T09:49:23.749Z,18.1
2019-04-07T09:50:22.368Z,18
2019-04-07T09:51:22.603Z,17.9
2019-04-07T09:52:23.241Z,18.2
2019-04-07T09:53:22.946Z,18.3
2019-04-07T09:54:23.361Z,17.8
2019-04-07T09:55:25.732Z,18.1
2019-04-07T09:56:22.835Z,18.4
2019-04-07T09:57:23.550Z,18.9
2019-04-07T09:58:22.821Z,18.8
2019-04-07T09:59:22.928Z,18.8
2019-04-07T10:00:23.969Z,18.4
2019-04-07T10:01:25.282Z,18.5
2019-04-07T10:02:23.031Z,18.3
2019-04-07T10:03:23.305Z,18.2
2019-04-07T10:04:23.280Z,18.3
2019-04-07T10:05:23.227Z,18.3
2019-04-07T10:06:23.413Z,18.5
2019-04-07T10:07:24.003Z,18.7
2019-04-07T10:08:23.799Z,18.8
2019-04-07T10:09:23.537Z,18.8
2019-04-07T10:10:23.745Z,18.6
2019-04-07T10:11:23.558Z,18.4
2019-04-07T10:12:24.784Z,18.5
2019-04-07T10:13:24.043Z,18.6
2019-04-07T10:14:23.761Z,18.7
2019-04-07T10:15:24.341Z,18.8
2019-04-07T10:16:23.827Z,18.8
2019-04-07T10:17:24.286Z,19
2019-04-07T10:18:24.026Z,19
2019-04-07T10:19:24.629Z,19.3
2019-04-07T10:20:24.216Z,19.2
2019-04-07T10:21:24.252Z,18.8
2019-04-07T10:22:24.146Z,18.7
2019-04-07T10:23:24.265Z,18.7
2019-04-07T10:24:24.617Z,19.1
2019-04-07T10:25:25.967Z,19.1
2019-04-07T10:26:24.462Z,18.9
2019-04-07T10:27:24.432Z,18.8
2019-04-07T10:28:24.534Z,18.8
2019-04-07T10:29:25.238Z,19.1
2019-04-07T10:30:24.665Z,19.4
2019-04-07T10:31:24.722Z,19.2
2019-04-07T10:32:25.757Z,19.1
2019-04-07T10:33:24.852Z,18.9
2019-04-07T10:34:24.930Z,18.8
2019-04-07T10:35:24.878Z,18.7
2019-04-07T10:36:25.386Z,19
2019-04-07T10:37:25.492Z,19.2
2019-04-07T10:38:25.774Z,19.1
2019-04-07T10:39:25.196Z,19.1
2019-04-07T10:40:25.417Z,18.9
2019-04-07T10:41:26.136Z,18.9
2019-04-07T10:42:25.335Z,18.8
2019-04-07T10:43:26.086Z,18.8
2019-04-07T10:44:26.006Z,18.8
2019-04-07T10:45:26.173Z,18.9
2019-04-07T10:46:25.928Z,19.1
2019-04-07T10:47:25.649Z,19.1
2019-04-07T10:48:26.114Z,19.1
2019-04-07T10:49:26.291Z,19.3
2019-04-07T10:50:25.840Z,19.2
2019-04-07T10:51:25.971Z,19.4
2019-04-07T10:52:26.113Z,19.7
2019-04-07T10:53:26.263Z,20
2019-04-07T10:54:26.765Z,19.8
2019-04-07T10:55:26.521Z,19.7
2019-04-07T10:56:26.554Z,19.6
2019-04-07T10:57:26.682Z,19.2
2019-04-07T10:58:26.535Z,19.2
2019-04-07T10:59:26.746Z,19.2
2019-04-07T11:00:26.288Z,19.5
2019-04-07T11:01:26.677Z,19.8
2019-04-07T11:02:27.516Z,20.1
2019-04-07T11:03:27.276Z,20
2019-04-07T11:04:27.261Z,19.8
2019-04-07T11:05:26.543Z,19.8
2019-04-07T11:06:27.252Z,19.6
2019-04-07T11:07:26.713Z,19.7
2019-04-07T11:08:26.727Z,19.9
2019-04-07T11:09:26.776Z,19.6
2019-04-07T11:10:33.300Z,19.7
2019-04-07T11:11:26.912Z,19.4
2019-04-07T11:12:27.545Z,19
2019-04-07T11:13:27.624Z,19
2019-04-07T11:14:27.040Z,19.2
2019-04-07T11:15:28.345Z,19.2
2019-04-07T11:16:27.185Z,19.4
2019-04-07T11:17:27.305Z,19.3
2019-04-07T11:18:27.644Z,19.4
2019-04-07T11:19:28.479Z,19.5
2019-04-07T11:20:27.903Z,19.6
2019-04-07T11:21:28.207Z,19.5
2019-04-07T11:22:27.483Z,19.5
2019-04-07T11:23:28.460Z,19.7
2019-04-07T11:24:30.437Z,19.9
2019-04-07T11:25:28.395Z,19.9
2019-04-07T11:26:27.896Z,19.8
2019-04-07T11:27:29.354Z,20.1
2019-04-07T11:28:29.000Z,19.7
2019-04-07T11:29:28.307Z,19.6
2019-04-07T11:30:28.684Z,19.6
2019-04-07T11:31:28.050Z,19.8
2019-04-07T11:32:28.828Z,19.7
2019-04-07T11:33:28.978Z,19.7
2019-04-07T11:34:28.240Z,19.6
2019-04-07T11:35:29.797Z,19.7
2019-04-07T11:36:28.778Z,20.2
2019-04-07T11:37:29.111Z,20.3
2019-04-07T11:38:28.526Z,20.6
2019-04-07T11:39:29.071Z,20.4
2019-04-07T11:40:29.270Z,20.1
2019-04-07T11:41:28.853Z,20.5
2019-04-07T11:42:29.299Z,20.6
2019-04-07T11:43:28.728Z,20.2
2019-04-07T11:44:29.282Z,20.1
2019-04-07T11:45:28.967Z,20.4
2019-04-07T11:46:29.491Z,20.5
2019-04-07T11:47:29.668Z,20.4
2019-04-07T11:48:29.437Z,20.2
2019-04-07T11:49:29.069Z,20.6
2019-04-07T11:50:29.687Z,20.4
2019-04-07T11:51:29.211Z,20.5
2019-04-07T11:52:29.188Z,20.6
2019-04-07T11:53:29.451Z,20.5
2019-04-07T11:54:29.538Z,20.7
2019-04-07T11:55:30.183Z,20.9
2019-04-07T11:56:29.619Z,20.8
2019-04-07T11:57:30.163Z,20.8
2019-04-07T11:58:34.360Z,20.8
2019-04-07T11:59:29.598Z,20.9
2019-04-07T12:00:30.023Z,20.8
2019-04-07T12:01:30.301Z,20.5
2019-04-07T12:02:29.790Z,20.8
2019-04-07T12:03:29.995Z,20.5
2019-04-07T12:04:30.652Z,20.4
2019-04-07T12:05:29.930Z,20.3
2019-04-07T12:06:30.216Z,20.4
2019-04-07T12:07:30.457Z,20.2
2019-04-07T12:08:34.905Z,19.7
2019-04-07T12:09:30.482Z,19.6
2019-04-07T12:10:31.163Z,19.5
2019-04-07T12:11:31.040Z,19.6
2019-04-07T12:12:31.095Z,20
2019-04-07T12:13:31.275Z,20
2019-04-07T12:14:30.713Z,19.7
2019-04-07T12:15:30.598Z,19.6
2019-04-07T12:16:30.893Z,19.3
2019-04-07T12:17:30.695Z,19.3
2019-04-07T12:18:30.893Z,19.4
2019-04-07T12:19:31.058Z,19.3
2019-04-07T12:20:33.675Z,19.7
2019-04-07T12:21:35.283Z,20.1
2019-04-07T12:22:30.923Z,20.1
2019-04-07T12:23:30.987Z,20.1
2019-04-07T12:24:31.035Z,20.2
2019-04-07T12:25:33.328Z,20.2
2019-04-07T12:26:31.459Z,20.4
2019-04-07T12:27:31.465Z,20.6
2019-04-07T12:28:31.377Z,20.5
2019-04-07T12:29:32.053Z,20.2
2019-04-07T12:30:31.581Z,20.4
2019-04-07T12:31:31.443Z,20.3
2019-04-07T12:32:32.487Z,20.3
2019-04-07T12:33:31.559Z,20.8
2019-04-07T12:34:32.174Z,21
2019-04-07T12:35:32.867Z,21.4
2019-04-07T12:36:32.105Z,21.4
2019-04-07T12:37:31.853Z,21.2
2019-04-07T12:38:31.923Z,20.9
2019-04-07T12:39:34.016Z,20.4
2019-04-07T12:40:32.262Z,20.7
2019-04-07T12:41:33.023Z,21
2019-04-07T12:42:32.128Z,20.7
2019-04-07T12:43:32.779Z,20.3
2019-04-07T12:44:32.243Z,19.9
2019-04-07T12:45:34.709Z,20.2
2019-04-07T12:46:32.324Z,20.1
2019-04-07T12:47:32.399Z,20.1
2019-04-07T12:48:32.445Z,20.1
2019-04-07T12:49:34.108Z,20.6
2019-04-07T12:50:32.841Z,20.6
2019-04-07T12:51:32.852Z,20.8
2019-04-07T12:52:33.402Z,20.7
2019-04-07T12:53:35.297Z,20.7
2019-04-07T12:54:33.059Z,21
2019-04-07T12:55:32.851Z,21.4
2019-04-07T12:56:34.210Z,21.6
2019-04-07T12:57:36.668Z,21.7
2019-04-07T12:58:33.109Z,22.2
2019-04-07T12:59:33.617Z,22.3
2019-04-07T13:00:39.314Z,22.1
2019-04-07T13:01:33.855Z,22
2019-04-07T13:02:33.776Z,21.9
2019-04-07T13:03:33.307Z,21.5
2019-04-07T13:04:34.209Z,21.3
2019-04-07T13:05:36.637Z,21.5
2019-04-07T13:06:33.470Z,21.5
2019-04-07T13:07:37.540Z,21.5
2019-04-07T13:08:33.724Z,21.8
2019-04-07T13:09:34.516Z,22
2019-04-07T13:10:34.281Z,21.9
2019-04-07T13:11:38.409Z,22.1
2019-04-07T13:12:34.300Z,22.2
2019-04-07T13:13:34.202Z,21.3
2019-04-07T13:14:37.751Z,21
2019-04-07T13:15:34.294Z,20.7
2019-04-07T13:16:34.743Z,20.8
2019-04-07T13:17:36.972Z,21
2019-04-07T13:18:37.186Z,21.3
2019-04-07T13:19:34.227Z,21.1
2019-04-07T13:20:34.282Z,21.2
2019-04-07T13:21:34.613Z,21.2
2019-04-07T13:22:35.428Z,20.8
2019-04-07T13:23:36.725Z,20.5
2019-04-07T13:24:37.575Z,20.5
2019-04-07T13:25:34.871Z,20.8
2019-04-07T13:26:34.632Z,21.5
2019-04-07T13:27:38.896Z,22
2019-04-07T13:28:35.889Z,22.2
2019-04-07T13:29:35.891Z,22
2019-04-07T13:30:35.606Z,22.1
2019-04-07T13:31:36.437Z,22
2019-04-07T13:32:40.790Z,21.5
2019-04-07T13:33:36.128Z,20.9
2019-04-07T13:34:36.139Z,20.9
2019-04-07T13:35:35.151Z,21.3
2019-04-07T13:36:35.217Z,21.3
2019-04-07T13:37:36.775Z,21.3
2019-04-07T13:38:37.147Z,20.8